Wind From: 11-12-2017 12:03 Until: 12-12-2017 06:00 warning for: Wind Level: Orange info button

Power and phone distribution networks may be disrupted for relatively long periods., Roofs and chimneys can be damaged. , Tree branches may break. , Vehicles can be deported. , Traffic may be disrupted, particularly on secondary roads in forest areas. Limit your trips. , Limit your speed in highway driving, especially if you drive a vehicle or hitch sensitive to wind. , Do not go for walks in forests or along the coast., In town, be vigilant against possible falling objects., Do not work on roofs and do not touch any electrical line fallen on the ground., Store or secure sensitive objects to wind or likely to be damaged., Always install power generators outside buildings. 


Meteo18 Weather Cam more information Meteo18 Weather Cam


Thunder radar more information blitzortung!


Rain radar more information rain snow radar


Visit our other weather sites:

Template documentation
and downloads

And another site



Weather Underground History page Text

Daily Summary for March 26, 2017 Units:  Both    English   Metric
« Previous Day
Next Day »
Daily Weekly Monthly Yearly Custom
  High: Low: Average:
Temperature: 63.1 °F /  17.3 °C 47.7 °F /  8.7 °C 54.1 °F /  12.3 °C
Dew Point: 45.9 °F /  7.7 °C 40.3 °F /  4.6 °C 43 °F /  6.1 °C
Humidity: 86 % 44 % 68 %
Wind Speed: 9 mph /  14.5 km/h - 1.1 mph /  1.8 km/h
Wind Gust: 12 mph /  19.3 km/h - -
Wind:- - ESE
Pressure: 30.2 in /  1020.9 hPa 30.1 in /  1017.8 hPa -
Precipitation: 0 in /  0.0 mm    
Historical Graphs
 
 
Tabular Data for March 26, 2017
Time Temperature Dew Point Pressure Wind Wind Speed Wind Gust Humidity Rainfall Rate (Hourly)
00:02 50.5 °F /  10.3 °C 45.5 °F /  7.5 °C 30.1 in /  1017.8 hPa Calm   1 mph /  1.6 km/h 83 % 0 in /  0.0 mm
00:07 50.5 °F /  10.3 °C 45.3 °F /  7.4 °C 30.1 in /  1017.8 hPa East 3 mph /  4.8 km/h 3 mph /  4.8 km/h 82 % 0 in /  0.0 mm
00:12 50.9 °F /  10.5 °C 45.7 °F /  7.6 °C 30.1 in /  1017.8 hPa ESE 1 mph /  1.6 km/h 2 mph /  3.2 km/h 82 % 0 in /  0.0 mm
00:17 51.1 °F /  10.6 °C 45.5 °F /  7.5 °C 30.1 in /  1017.8 hPa Calm   3 mph /  4.8 km/h 81 % 0 in /  0.0 mm
00:22 51.1 °F /  10.6 °C 45.5 °F /  7.5 °C 30.1 in /  1017.8 hPa Calm   3 mph /  4.8 km/h 81 % 0 in /  0.0 mm
00:27 51.1 °F /  10.6 °C 45.5 °F /  7.5 °C 30.1 in /  1018.2 hPa East 1 mph /  1.6 km/h 3 mph /  4.8 km/h 81 % 0 in /  0.0 mm
00:37 51.3 °F /  10.7 °C 45 °F /  7.2 °C 30.1 in /  1017.8 hPa ESE 1 mph /  1.6 km/h 3 mph /  4.8 km/h 79 % 0 in /  0.0 mm
00:42 51.3 °F /  10.7 °C 44.6 °F /  7.0 °C 30.1 in /  1018.2 hPa East 1 mph /  1.6 km/h 3 mph /  4.8 km/h 78 % 0 in /  0.0 mm
00:47 51.3 °F /  10.7 °C 44.6 °F /  7.0 °C 30.1 in /  1018.2 hPa East 1 mph /  1.6 km/h 4 mph /  6.4 km/h 78 % 0 in /  0.0 mm
00:57 51.1 °F /  10.6 °C 44.4 °F /  6.9 °C 30.1 in /  1017.8 hPa Calm   4 mph /  6.4 km/h 78 % 0 in /  0.0 mm
01:02 50.9 °F /  10.5 °C 44.6 °F /  7.0 °C 30.1 in /  1017.8 hPa Calm   3 mph /  4.8 km/h 79 % 0 in /  0.0 mm
01:12 50.5 °F /  10.3 °C 44.2 °F /  6.8 °C 30.1 in /  1017.8 hPa Calm   2 mph /  3.2 km/h 79 % 0 in /  0.0 mm
01:17 50.5 °F /  10.3 °C 44.2 °F /  6.8 °C 30.1 in /  1017.8 hPa East 1 mph /  1.6 km/h 1 mph /  1.6 km/h 79 % 0 in /  0.0 mm
01:22 50.5 °F /  10.3 °C 44.2 °F /  6.8 °C 30.1 in /  1018.2 hPa Calm   4 mph /  6.4 km/h 79 % 0 in /  0.0 mm
01:32 50.4 °F /  10.2 °C 44.1 °F /  6.7 °C 30.1 in /  1018.2 hPa Calm   4 mph /  6.4 km/h 79 % 0 in /  0.0 mm
01:42 49.8 °F /  9.9 °C 43.5 °F /  6.4 °C 30.1 in /  1018.2 hPa Calm   4 mph /  6.4 km/h 79 % 0 in /  0.0 mm
01:52 49.5 °F /  9.7 °C 43.9 °F /  6.6 °C 30.1 in /  1018.2 hPa Calm   4 mph /  6.4 km/h 81 % 0 in /  0.0 mm
01:57 49.3 °F /  9.6 °C 43.7 °F /  6.5 °C 30.1 in /  1018.2 hPa Calm   4 mph /  6.4 km/h 81 % 0 in /  0.0 mm
03:02 49.3 °F /  9.6 °C 43.7 °F /  6.5 °C 30.1 in /  1018.2 hPa Calm   3 mph /  4.8 km/h 81 % 0 in /  0.0 mm
03:12 48.7 °F /  9.3 °C 43.5 °F /  6.4 °C 30.1 in /  1018.2 hPa Calm   2 mph /  3.2 km/h 82 % 0 in /  0.0 mm
03:17 48.6 °F /  9.2 °C 43.3 °F /  6.3 °C 30.1 in /  1018.2 hPa Calm   2 mph /  3.2 km/h 82 % 0 in /  0.0 mm
03:22 48.6 °F /  9.2 °C 43.3 °F /  6.3 °C 30.1 in /  1018.2 hPa Calm   1 mph /  1.6 km/h 82 % 0 in /  0.0 mm
03:32 48.4 °F /  9.1 °C 43.5 °F /  6.4 °C 30.1 in /  1018.2 hPa Calm   2 mph /  3.2 km/h 83 % 0 in /  0.0 mm
03:37 48.4 °F /  9.1 °C 43.5 °F /  6.4 °C 30.1 in /  1018.2 hPa Calm   2 mph /  3.2 km/h 83 % 0 in /  0.0 mm
03:42 48.4 °F /  9.1 °C 43.2 °F /  6.2 °C 30.1 in /  1018.2 hPa Calm   2 mph /  3.2 km/h 82 % 0 in /  0.0 mm
03:47 48.4 °F /  9.1 °C 43.2 °F /  6.2 °C 30.1 in /  1018.2 hPa Calm   1 mph /  1.6 km/h 82 % 0 in /  0.0 mm
03:52 48.6 °F /  9.2 °C 43.3 °F /  6.3 °C 30.1 in /  1018.5 hPa Calm   1 mph /  1.6 km/h 82 % 0 in /  0.0 mm
03:57 48.4 °F /  9.1 °C 43.2 °F /  6.2 °C 30.1 in /  1018.5 hPa Calm   1 mph /  1.6 km/h 82 % 0 in /  0.0 mm
04:02 48.4 °F /  9.1 °C 43.2 °F /  6.2 °C 30.1 in /  1018.5 hPa Calm   1 mph /  1.6 km/h 82 % 0 in /  0.0 mm
04:12 48.2 °F /  9.0 °C 43 °F /  6.1 °C 30.1 in /  1018.5 hPa Calm     82 % 0 in /  0.0 mm
04:17 48.4 °F /  9.1 °C 43.2 °F /  6.2 °C 30.1 in /  1018.5 hPa Calm     82 % 0 in /  0.0 mm
04:22 48.4 °F /  9.1 °C 43.2 °F /  6.2 °C 30.1 in /  1018.5 hPa Calm     82 % 0 in /  0.0 mm
04:27 48.2 °F /  9.0 °C 43 °F /  6.1 °C 30.1 in /  1018.5 hPa Calm     82 % 0 in /  0.0 mm
04:32 48.2 °F /  9.0 °C 43 °F /  6.1 °C 30.1 in /  1018.5 hPa Calm     82 % 0 in /  0.0 mm
04:42 48.2 °F /  9.0 °C 43.3 °F /  6.3 °C 30.1 in /  1018.5 hPa Calm     83 % 0 in /  0.0 mm
04:52 48.4 °F /  9.1 °C 43.2 °F /  6.2 °C 30.1 in /  1018.5 hPa Calm   1 mph /  1.6 km/h 82 % 0 in /  0.0 mm
04:57 48.4 °F /  9.1 °C 43.2 °F /  6.2 °C 30.1 in /  1018.5 hPa Calm   1 mph /  1.6 km/h 82 % 0 in /  0.0 mm
05:02 48.4 °F /  9.1 °C 43.2 °F /  6.2 °C 30.1 in /  1018.5 hPa Calm   1 mph /  1.6 km/h 82 % 0 in /  0.0 mm
05:12 48.4 °F /  9.1 °C 43.5 °F /  6.4 °C 30.1 in /  1018.5 hPa Calm   1 mph /  1.6 km/h 83 % 0 in /  0.0 mm
05:22 48 °F /  8.9 °C 43.2 °F /  6.2 °C 30.1 in /  1018.5 hPa Calm     83 % 0 in /  0.0 mm
05:27 47.8 °F /  8.8 °C 43 °F /  6.1 °C 30.1 in /  1018.2 hPa Calm     83 % 0 in /  0.0 mm
05:32 48 °F /  8.9 °C 43.2 °F /  6.2 °C 30.1 in /  1018.5 hPa Calm     83 % 0 in /  0.0 mm
05:42 48 °F /  8.9 °C 43.2 °F /  6.2 °C 30.1 in /  1018.2 hPa Calm     83 % 0 in /  0.0 mm
05:47 48 °F /  8.9 °C 43.2 °F /  6.2 °C 30.1 in /  1018.2 hPa East 1 mph /  1.6 km/h   83 % 0 in /  0.0 mm
05:52 48 °F /  8.9 °C 43.2 °F /  6.2 °C 30.1 in /  1018.2 hPa Calm   1 mph /  1.6 km/h 83 % 0 in /  0.0 mm
06:02 48 °F /  8.9 °C 43.2 °F /  6.2 °C 30.1 in /  1018.2 hPa Calm   1 mph /  1.6 km/h 83 % 0 in /  0.0 mm
06:12 48 °F /  8.9 °C 42.8 °F /  6.0 °C 30.1 in /  1018.2 hPa Calm   1 mph /  1.6 km/h 82 % 0 in /  0.0 mm
06:17 48 °F /  8.9 °C 42.8 °F /  6.0 °C 30.1 in /  1018.2 hPa Calm   1 mph /  1.6 km/h 82 % 0 in /  0.0 mm
06:22 48 °F /  8.9 °C 42.8 °F /  6.0 °C 30.1 in /  1018.2 hPa Calm     82 % 0 in /  0.0 mm
06:32 48 °F /  8.9 °C 42.8 °F /  6.0 °C 30.1 in /  1018.2 hPa Calm     82 % 0 in /  0.0 mm
06:37 48 °F /  8.9 °C 42.8 °F /  6.0 °C 30.1 in /  1018.2 hPa Calm     82 % 0 in /  0.0 mm
06:42 47.8 °F /  8.8 °C 42.6 °F /  5.9 °C 30.1 in /  1018.2 hPa Calm     82 % 0 in /  0.0 mm
06:47 48 °F /  8.9 °C 42.8 °F /  6.0 °C 30.1 in /  1018.2 hPa Calm     82 % 0 in /  0.0 mm
06:52 48 °F /  8.9 °C 42.8 °F /  6.0 °C 30.1 in /  1018.2 hPa Calm     82 % 0 in /  0.0 mm
07:02 47.8 °F /  8.8 °C 42.6 °F /  5.9 °C 30.1 in /  1018.2 hPa Calm     82 % 0 in /  0.0 mm
07:12 47.8 °F /  8.8 °C 43 °F /  6.1 °C 30.1 in /  1018.5 hPa Calm     83 % 0 in /  0.0 mm
07:17 47.7 °F /  8.7 °C 42.8 °F /  6.0 °C 30.1 in /  1018.5 hPa Calm     83 % 0 in /  0.0 mm
07:22 47.7 °F /  8.7 °C 42.8 °F /  6.0 °C 30.1 in /  1018.5 hPa Calm     83 % 0 in /  0.0 mm
07:32 47.7 °F /  8.7 °C 42.4 °F /  5.8 °C 30.1 in /  1018.5 hPa Calm     82 % 0 in /  0.0 mm
07:37 47.7 °F /  8.7 °C 42.4 °F /  5.8 °C 30.1 in /  1018.5 hPa Calm     82 % 0 in /  0.0 mm
07:42 47.8 °F /  8.8 °C 42.6 °F /  5.9 °C 30.1 in /  1018.8 hPa Calm     82 % 0 in /  0.0 mm
07:47 47.8 °F /  8.8 °C 42.3 °F /  5.7 °C 30.1 in /  1018.8 hPa Calm     81 % 0 in /  0.0 mm
07:52 47.8 °F /  8.8 °C 42.6 °F /  5.9 °C 30.1 in /  1018.8 hPa Calm     82 % 0 in /  0.0 mm
08:02 47.7 °F /  8.7 °C 42.8 °F /  6.0 °C 30.1 in /  1018.8 hPa Calm     83 % 0 in /  0.0 mm
08:12 47.8 °F /  8.8 °C 42.6 °F /  5.9 °C 30.1 in /  1019.2 hPa Calm     82 % 0 in /  0.0 mm
08:17 47.7 °F /  8.7 °C 43 °F /  6.1 °C 30.1 in /  1019.2 hPa Calm     84 % 0 in /  0.0 mm
08:22 47.7 °F /  8.7 °C 43 °F /  6.1 °C 30.1 in /  1019.2 hPa Calm     84 % 0 in /  0.0 mm
08:32 47.8 °F /  8.8 °C 43 °F /  6.1 °C 30.1 in /  1019.2 hPa Calm     83 % 0 in /  0.0 mm
08:37 48 °F /  8.9 °C 43.3 °F /  6.3 °C 30.1 in /  1019.2 hPa Calm     84 % 0 in /  0.0 mm
08:42 48 °F /  8.9 °C 44.1 °F /  6.7 °C 30.1 in /  1019.5 hPa Calm     86 % 0 in /  0.0 mm
08:52 48 °F /  8.9 °C 43.7 °F /  6.5 °C 30.1 in /  1019.5 hPa Calm     85 % 0 in /  0.0 mm
09:02 48.6 °F /  9.2 °C 43.7 °F /  6.5 °C 30.1 in /  1019.9 hPa Calm     83 % 0 in /  0.0 mm
09:07 48.7 °F /  9.3 °C 43.9 °F /  6.6 °C 30.1 in /  1019.9 hPa Calm     83 % 0 in /  0.0 mm
09:12 48.7 °F /  9.3 °C 43.9 °F /  6.6 °C 30.1 in /  1019.9 hPa Calm     83 % 0 in /  0.0 mm
09:17 48.9 °F /  9.4 °C 43.7 °F /  6.5 °C 30.1 in /  1019.9 hPa Calm     82 % 0 in /  0.0 mm
09:22 49.3 °F /  9.6 °C 43.7 °F /  6.5 °C 30.1 in /  1019.9 hPa Calm     81 % 0 in /  0.0 mm
09:32 49.5 °F /  9.7 °C 43.5 °F /  6.4 °C 30.1 in /  1019.9 hPa Calm     80 % 0 in /  0.0 mm
09:42 49.8 °F /  9.9 °C 43.5 °F /  6.4 °C 30.1 in /  1019.9 hPa Calm   2 mph /  3.2 km/h 79 % 0 in /  0.0 mm
09:47 50 °F /  10.0 °C 44.1 °F /  6.7 °C 30.1 in /  1019.9 hPa Calm   2 mph /  3.2 km/h 80 % 0 in /  0.0 mm
09:52 50 °F /  10.0 °C 43.7 °F /  6.5 °C 30.1 in /  1020.2 hPa Calm   2 mph /  3.2 km/h 79 % 0 in /  0.0 mm
09:57 50.2 °F /  10.1 °C 43.9 °F /  6.6 °C 30.1 in /  1020.2 hPa Calm   1 mph /  1.6 km/h 79 % 0 in /  0.0 mm
10:02 50.4 °F /  10.2 °C 44.1 °F /  6.7 °C 30.1 in /  1020.2 hPa Calm   1 mph /  1.6 km/h 79 % 0 in /  0.0 mm
10:07 50.4 °F /  10.2 °C 43.3 °F /  6.3 °C 30.1 in /  1020.2 hPa Calm   1 mph /  1.6 km/h 77 % 0 in /  0.0 mm
10:12 50.5 °F /  10.3 °C 43.5 °F /  6.4 °C 30.1 in /  1020.2 hPa Calm   1 mph /  1.6 km/h 77 % 0 in /  0.0 mm
10:22 50.5 °F /  10.3 °C 43 °F /  6.1 °C 30.1 in /  1020.2 hPa SSE 3 mph /  4.8 km/h 3 mph /  4.8 km/h 75 % 0 in /  0.0 mm
10:27 50.5 °F /  10.3 °C 42.6 °F /  5.9 °C 30.1 in /  1020.2 hPa South 3 mph /  4.8 km/h 4 mph /  6.4 km/h 74 % 0 in /  0.0 mm
10:32 50.5 °F /  10.3 °C 43.3 °F /  6.3 °C 30.1 in /  1020.2 hPa South 2 mph /  3.2 km/h 4 mph /  6.4 km/h 76 % 0 in /  0.0 mm
10:37 50.5 °F /  10.3 °C 43 °F /  6.1 °C 30.1 in /  1020.5 hPa SSE 2 mph /  3.2 km/h 5 mph /  8.0 km/h 75 % 0 in /  0.0 mm
10:42 50.7 °F /  10.4 °C 43.7 °F /  6.5 °C 30.1 in /  1020.5 hPa South 1 mph /  1.6 km/h 5 mph /  8.0 km/h 77 % 0 in /  0.0 mm
10:47 50.9 °F /  10.5 °C 43.5 °F /  6.4 °C 30.1 in /  1020.5 hPa South 3 mph /  4.8 km/h 5 mph /  8.0 km/h 76 % 0 in /  0.0 mm
10:52 50.9 °F /  10.5 °C 43.3 °F /  6.3 °C 30.1 in /  1020.5 hPa South 2 mph /  3.2 km/h 5 mph /  8.0 km/h 75 % 0 in /  0.0 mm
10:57 50.7 °F /  10.4 °C 42.8 °F /  6.0 °C 30.1 in /  1020.5 hPa South 3 mph /  4.8 km/h 5 mph /  8.0 km/h 74 % 0 in /  0.0 mm
11:02 50.9 °F /  10.5 °C 43.3 °F /  6.3 °C 30.1 in /  1020.5 hPa SSE 2 mph /  3.2 km/h 5 mph /  8.0 km/h 75 % 0 in /  0.0 mm
11:12 51.3 °F /  10.7 °C 43.5 °F /  6.4 °C 30.1 in /  1020.5 hPa SSE 1 mph /  1.6 km/h 5 mph /  8.0 km/h 75 % 0 in /  0.0 mm
11:17 51.4 °F /  10.8 °C 44.1 °F /  6.7 °C 30.1 in /  1020.5 hPa South 1 mph /  1.6 km/h 5 mph /  8.0 km/h 76 % 0 in /  0.0 mm
11:22 51.6 °F /  10.9 °C 43.5 °F /  6.4 °C 30.2 in /  1020.9 hPa ESE 1 mph /  1.6 km/h 5 mph /  8.0 km/h 74 % 0 in /  0.0 mm
11:32 52.3 °F /  11.3 °C 43.5 °F /  6.4 °C 30.2 in /  1020.9 hPa SE 4 mph /  6.4 km/h 5 mph /  8.0 km/h 72 % 0 in /  0.0 mm
11:37 52.5 °F /  11.4 °C 44.4 °F /  6.9 °C 30.2 in /  1020.9 hPa SE 1 mph /  1.6 km/h 5 mph /  8.0 km/h 74 % 0 in /  0.0 mm
11:42 52.9 °F /  11.6 °C 44.1 °F /  6.7 °C 30.2 in /  1020.9 hPa SE 2 mph /  3.2 km/h 5 mph /  8.0 km/h 72 % 0 in /  0.0 mm
11:47 53.1 °F /  11.7 °C 44.2 °F /  6.8 °C 30.2 in /  1020.9 hPa SSE 2 mph /  3.2 km/h 5 mph /  8.0 km/h 72 % 0 in /  0.0 mm
11:52 53.4 °F /  11.9 °C 44.2 °F /  6.8 °C 30.2 in /  1020.9 hPa SSE 2 mph /  3.2 km/h 5 mph /  8.0 km/h 71 % 0 in /  0.0 mm
12:02 54.3 °F /  12.4 °C 44.8 °F /  7.1 °C 30.2 in /  1020.9 hPa SSW 1 mph /  1.6 km/h 4 mph /  6.4 km/h 70 % 0 in /  0.0 mm
12:12 55.2 °F /  12.9 °C 44.4 °F /  6.9 °C 30.2 in /  1020.9 hPa SSE 1 mph /  1.6 km/h 4 mph /  6.4 km/h 67 % 0 in /  0.0 mm
12:17 55.8 °F /  13.2 °C 45.3 °F /  7.4 °C 30.2 in /  1020.9 hPa SSW 2 mph /  3.2 km/h 4 mph /  6.4 km/h 68 % 0 in /  0.0 mm
12:22 55.9 °F /  13.3 °C 44.4 °F /  6.9 °C 30.2 in /  1020.9 hPa Calm   4 mph /  6.4 km/h 65 % 0 in /  0.0 mm
12:27 56.1 °F /  13.4 °C 44.6 °F /  7.0 °C 30.2 in /  1020.9 hPa SE 1 mph /  1.6 km/h 4 mph /  6.4 km/h 65 % 0 in /  0.0 mm
12:32 56.8 °F /  13.8 °C 44.4 °F /  6.9 °C 30.2 in /  1020.9 hPa Calm   4 mph /  6.4 km/h 63 % 0 in /  0.0 mm
12:37 57 °F /  13.9 °C 44.1 °F /  6.7 °C 30.2 in /  1020.9 hPa WSW 3 mph /  4.8 km/h 4 mph /  6.4 km/h 62 % 0 in /  0.0 mm
12:42 57 °F /  13.9 °C 45 °F /  7.2 °C 30.2 in /  1020.9 hPa ENE 3 mph /  4.8 km/h 4 mph /  6.4 km/h 64 % 0 in /  0.0 mm
12:47 56.8 °F /  13.8 °C 44.8 °F /  7.1 °C 30.2 in /  1020.9 hPa Calm   4 mph /  6.4 km/h 64 % 0 in /  0.0 mm
12:52 57.2 °F /  14.0 °C 44.2 °F /  6.8 °C 30.2 in /  1020.9 hPa Calm   4 mph /  6.4 km/h 62 % 0 in /  0.0 mm
12:57 57.9 °F /  14.4 °C 45.9 °F /  7.7 °C 30.2 in /  1020.9 hPa NNE 1 mph /  1.6 km/h 5 mph /  8.0 km/h 64 % 0 in /  0.0 mm
13:02 57.9 °F /  14.4 °C 44.6 °F /  7.0 °C 30.2 in /  1020.9 hPa Calm   5 mph /  8.0 km/h 61 % 0 in /  0.0 mm
13:12 58.8 °F /  14.9 °C 42.3 °F /  5.7 °C 30.2 in /  1020.9 hPa ESE 2 mph /  3.2 km/h 3 mph /  4.8 km/h 54 % 0 in /  0.0 mm
13:17 59 °F /  15.0 °C 41.4 °F /  5.2 °C 30.1 in /  1020.5 hPa Calm   3 mph /  4.8 km/h 52 % 0 in /  0.0 mm
13:22 59.5 °F /  15.3 °C 43.3 °F /  6.3 °C 30.1 in /  1020.5 hPa NE 1 mph /  1.6 km/h 3 mph /  4.8 km/h 55 % 0 in /  0.0 mm
13:32 58.8 °F /  14.9 °C 42.3 °F /  5.7 °C 30.1 in /  1020.5 hPa ENE 4 mph /  6.4 km/h 8 mph /  12.9 km/h 54 % 0 in /  0.0 mm
13:37 58.8 °F /  14.9 °C 43.2 °F /  6.2 °C 30.1 in /  1020.5 hPa NNE 4 mph /  6.4 km/h 10 mph /  16.1 km/h 56 % 0 in /  0.0 mm
13:42 58.6 °F /  14.8 °C 42.1 °F /  5.6 °C 30.1 in /  1020.5 hPa NE 3 mph /  4.8 km/h 10 mph /  16.1 km/h 54 % 0 in /  0.0 mm
13:47 58.8 °F /  14.9 °C 42.6 °F /  5.9 °C 30.1 in /  1020.5 hPa East 2 mph /  3.2 km/h 12 mph /  19.3 km/h 55 % 0 in /  0.0 mm
13:52 59.4 °F /  15.2 °C 43.7 °F /  6.5 °C 30.1 in /  1020.5 hPa ENE 4 mph /  6.4 km/h 12 mph /  19.3 km/h 56 % 0 in /  0.0 mm
13:57 59.4 °F /  15.2 °C 43.7 °F /  6.5 °C 30.1 in /  1020.5 hPa ENE 7 mph /  11.3 km/h 12 mph /  19.3 km/h 56 % 0 in /  0.0 mm
14:02 59.2 °F /  15.1 °C 42.1 °F /  5.6 °C 30.1 in /  1020.5 hPa ENE 9 mph /  14.5 km/h 12 mph /  19.3 km/h 53 % 0 in /  0.0 mm
14:12 59.4 °F /  15.2 °C 41.2 °F /  5.1 °C 30.1 in /  1020.2 hPa ENE 3 mph /  4.8 km/h 12 mph /  19.3 km/h 51 % 0 in /  0.0 mm
14:17 59.5 °F /  15.3 °C 41.9 °F /  5.5 °C 30.1 in /  1020.2 hPa NE 3 mph /  4.8 km/h 10 mph /  16.1 km/h 52 % 0 in /  0.0 mm
14:22 59.5 °F /  15.3 °C 41.9 °F /  5.5 °C 30.1 in /  1020.2 hPa ESE 3 mph /  4.8 km/h 10 mph /  16.1 km/h 52 % 0 in /  0.0 mm
14:32 60.1 °F /  15.6 °C 41.4 °F /  5.2 °C 30.1 in /  1020.2 hPa East 7 mph /  11.3 km/h 7 mph /  11.3 km/h 50 % 0 in /  0.0 mm
14:37 60.1 °F /  15.6 °C 41.9 °F /  5.5 °C 30.1 in /  1020.2 hPa ESE 2 mph /  3.2 km/h 9 mph /  14.5 km/h 51 % 0 in /  0.0 mm
14:42 60.6 °F /  15.9 °C 40.3 °F /  4.6 °C 30.1 in /  1020.2 hPa SSW 2 mph /  3.2 km/h 9 mph /  14.5 km/h 47 % 0 in /  0.0 mm
14:47 60.6 °F /  15.9 °C 40.3 °F /  4.6 °C 30.1 in /  1020.2 hPa ESE 1 mph /  1.6 km/h 9 mph /  14.5 km/h 47 % 0 in /  0.0 mm
14:52 60.6 °F /  15.9 °C 40.3 °F /  4.6 °C 30.1 in /  1020.2 hPa Calm   8 mph /  12.9 km/h 47 % 0 in /  0.0 mm
14:57 61.2 °F /  16.2 °C 42.4 °F /  5.8 °C 30.1 in /  1019.9 hPa SE 1 mph /  1.6 km/h 7 mph /  11.3 km/h 50 % 0 in /  0.0 mm
15:02 61.3 °F /  16.3 °C 41 °F /  5.0 °C 30.1 in /  1019.9 hPa Calm   7 mph /  11.3 km/h 47 % 0 in /  0.0 mm
15:12 61.9 °F /  16.6 °C 42.4 °F /  5.8 °C 30.1 in /  1019.9 hPa SSW 3 mph /  4.8 km/h 6 mph /  9.7 km/h 49 % 0 in /  0.0 mm
15:17 61.9 °F /  16.6 °C 41.9 °F /  5.5 °C 30.1 in /  1019.9 hPa Calm   7 mph /  11.3 km/h 48 % 0 in /  0.0 mm
15:22 62.4 °F /  16.9 °C 41.9 °F /  5.5 °C 30.1 in /  1019.9 hPa SSW 3 mph /  4.8 km/h 7 mph /  11.3 km/h 47 % 0 in /  0.0 mm
15:27 62.4 °F /  16.9 °C 41.9 °F /  5.5 °C 30.1 in /  1019.9 hPa Calm   7 mph /  11.3 km/h 47 % 0 in /  0.0 mm
15:32 63.1 °F /  17.3 °C 42.6 °F /  5.9 °C 30.1 in /  1019.9 hPa East 1 mph /  1.6 km/h 7 mph /  11.3 km/h 47 % 0 in /  0.0 mm
15:37 62.4 °F /  16.9 °C 40.8 °F /  4.9 °C 30.1 in /  1019.9 hPa ESE 2 mph /  3.2 km/h 5 mph /  8.0 km/h 45 % 0 in /  0.0 mm
15:42 62.4 °F /  16.9 °C 41.9 °F /  5.5 °C 30.1 in /  1019.9 hPa ESE 3 mph /  4.8 km/h 5 mph /  8.0 km/h 47 % 0 in /  0.0 mm
15:52 61.5 °F /  16.4 °C 41.2 °F /  5.1 °C 30.1 in /  1019.9 hPa Calm   10 mph /  16.1 km/h 47 % 0 in /  0.0 mm
15:57 62.1 °F /  16.7 °C 40.5 °F /  4.7 °C 30.1 in /  1019.9 hPa ENE 2 mph /  3.2 km/h 10 mph /  16.1 km/h 45 % 0 in /  0.0 mm
16:02 62.4 °F /  16.9 °C 41.4 °F /  5.2 °C 30.1 in /  1019.9 hPa East 1 mph /  1.6 km/h 10 mph /  16.1 km/h 46 % 0 in /  0.0 mm
16:12 62.8 °F /  17.1 °C 41.2 °F /  5.1 °C 30.1 in /  1019.9 hPa East 4 mph /  6.4 km/h 6 mph /  9.7 km/h 45 % 0 in /  0.0 mm
16:17 62.4 °F /  16.9 °C 40.3 °F /  4.6 °C 30.1 in /  1019.9 hPa SSE 1 mph /  1.6 km/h 6 mph /  9.7 km/h 44 % 0 in /  0.0 mm
16:22 63 °F /  17.2 °C 41.9 °F /  5.5 °C 30.1 in /  1019.9 hPa South 1 mph /  1.6 km/h 8 mph /  12.9 km/h 46 % 0 in /  0.0 mm
16:32 63 °F /  17.2 °C 41.9 °F /  5.5 °C 30.1 in /  1019.9 hPa East 6 mph /  9.7 km/h 8 mph /  12.9 km/h 46 % 0 in /  0.0 mm
16:37 62.8 °F /  17.1 °C 42.8 °F /  6.0 °C 30.1 in /  1019.9 hPa NE 6 mph /  9.7 km/h 7 mph /  11.3 km/h 48 % 0 in /  0.0 mm
16:42 62.6 °F /  17.0 °C 41 °F /  5.0 °C 30.1 in /  1019.9 hPa East 1 mph /  1.6 km/h 7 mph /  11.3 km/h 45 % 0 in /  0.0 mm
16:47 63 °F /  17.2 °C 41.9 °F /  5.5 °C 30.1 in /  1019.9 hPa NE 1 mph /  1.6 km/h 8 mph /  12.9 km/h 46 % 0 in /  0.0 mm
16:52 62.6 °F /  17.0 °C 42.1 °F /  5.6 °C 30.1 in /  1019.9 hPa NNE 5 mph /  8.0 km/h 8 mph /  12.9 km/h 47 % 0 in /  0.0 mm
17:02 62.2 °F /  16.8 °C 42.3 °F /  5.7 °C 30.1 in /  1019.9 hPa ENE 1 mph /  1.6 km/h 9 mph /  14.5 km/h 48 % 0 in /  0.0 mm
17:07 62.4 °F /  16.9 °C 42.4 °F /  5.8 °C 30.1 in /  1019.9 hPa North 3 mph /  4.8 km/h 9 mph /  14.5 km/h 48 % 0 in /  0.0 mm
17:12 62.8 °F /  17.1 °C 42.8 °F /  6.0 °C 30.1 in /  1019.9 hPa NNE 7 mph /  11.3 km/h 9 mph /  14.5 km/h 48 % 0 in /  0.0 mm
17:17 62.8 °F /  17.1 °C 42.3 °F /  5.7 °C 30.1 in /  1019.9 hPa NNW 6 mph /  9.7 km/h 8 mph /  12.9 km/h 47 % 0 in /  0.0 mm
17:22 62.4 °F /  16.9 °C 41.4 °F /  5.2 °C 30.1 in /  1019.9 hPa ENE 2 mph /  3.2 km/h 9 mph /  14.5 km/h 46 % 0 in /  0.0 mm
17:32 62.6 °F /  17.0 °C 42.1 °F /  5.6 °C 30.1 in /  1019.9 hPa ENE 2 mph /  3.2 km/h 9 mph /  14.5 km/h 47 % 0 in /  0.0 mm
17:42 62.6 °F /  17.0 °C 42.6 °F /  5.9 °C 30.1 in /  1019.9 hPa West 1 mph /  1.6 km/h 8 mph /  12.9 km/h 48 % 0 in /  0.0 mm
17:47 62.2 °F /  16.8 °C 42.3 °F /  5.7 °C 30.1 in /  1019.9 hPa NNE 2 mph /  3.2 km/h 8 mph /  12.9 km/h 48 % 0 in /  0.0 mm
17:52 61.9 °F /  16.6 °C 41.9 °F /  5.5 °C 30.1 in /  1019.9 hPa Calm   6 mph /  9.7 km/h 48 % 0 in /  0.0 mm
17:57 61.9 °F /  16.6 °C 43 °F /  6.1 °C 30.1 in /  1019.9 hPa Calm   5 mph /  8.0 km/h 50 % 0 in /  0.0 mm
18:02 62.1 °F /  16.7 °C 42.6 °F /  5.9 °C 30.1 in /  1019.9 hPa NE 1 mph /  1.6 km/h 5 mph /  8.0 km/h 49 % 0 in /  0.0 mm
18:12 61.5 °F /  16.4 °C 42.6 °F /  5.9 °C 30.1 in /  1019.5 hPa East 1 mph /  1.6 km/h 4 mph /  6.4 km/h 50 % 0 in /  0.0 mm
18:17 61.9 °F /  16.6 °C 41.9 °F /  5.5 °C 30.1 in /  1019.5 hPa Calm   3 mph /  4.8 km/h 48 % 0 in /  0.0 mm
18:22 62.2 °F /  16.8 °C 41.7 °F /  5.4 °C 30.1 in /  1019.5 hPa Calm   3 mph /  4.8 km/h 47 % 0 in /  0.0 mm
18:32 62.2 °F /  16.8 °C 41.7 °F /  5.4 °C 30.1 in /  1019.5 hPa East 3 mph /  4.8 km/h 5 mph /  8.0 km/h 47 % 0 in /  0.0 mm
18:37 62.2 °F /  16.8 °C 41.7 °F /  5.4 °C 30.1 in /  1019.5 hPa East 3 mph /  4.8 km/h 5 mph /  8.0 km/h 47 % 0 in /  0.0 mm
18:42 62.1 °F /  16.7 °C 42.1 °F /  5.6 °C 30.1 in /  1019.5 hPa East 3 mph /  4.8 km/h 5 mph /  8.0 km/h 48 % 0 in /  0.0 mm
18:52 61.5 °F /  16.4 °C 42.3 °F /  5.7 °C 30.1 in /  1019.5 hPa ENE 2 mph /  3.2 km/h 6 mph /  9.7 km/h 49 % 0 in /  0.0 mm
18:57 61.7 °F /  16.5 °C 43.9 °F /  6.6 °C 30.1 in /  1019.5 hPa ENE 2 mph /  3.2 km/h 5 mph /  8.0 km/h 52 % 0 in /  0.0 mm
19:02 61.5 °F /  16.4 °C 43.2 °F /  6.2 °C 30.1 in /  1019.5 hPa ENE 2 mph /  3.2 km/h 5 mph /  8.0 km/h 51 % 0 in /  0.0 mm
19:07 61.7 °F /  16.5 °C 43.3 °F /  6.3 °C 30.1 in /  1019.5 hPa ENE 1 mph /  1.6 km/h 5 mph /  8.0 km/h 51 % 0 in /  0.0 mm
19:12 61.5 °F /  16.4 °C 43.2 °F /  6.2 °C 30.1 in /  1019.2 hPa ENE 3 mph /  4.8 km/h 5 mph /  8.0 km/h 51 % 0 in /  0.0 mm
19:17 61.5 °F /  16.4 °C 43.7 °F /  6.5 °C 30.1 in /  1019.5 hPa ENE 2 mph /  3.2 km/h 5 mph /  8.0 km/h 52 % 0 in /  0.0 mm
19:22 61.3 °F /  16.3 °C 43.5 °F /  6.4 °C 30.1 in /  1019.2 hPa NE 3 mph /  4.8 km/h 4 mph /  6.4 km/h 52 % 0 in /  0.0 mm
19:27 61.2 °F /  16.2 °C 43.3 °F /  6.3 °C 30.1 in /  1019.5 hPa ENE 2 mph /  3.2 km/h 4 mph /  6.4 km/h 52 % 0 in /  0.0 mm
19:32 61 °F /  16.1 °C 43.7 °F /  6.5 °C 30.1 in /  1019.5 hPa ENE 2 mph /  3.2 km/h 7 mph /  11.3 km/h 53 % 0 in /  0.0 mm
19:37 60.6 °F /  15.9 °C 44.4 °F /  6.9 °C 30.1 in /  1019.5 hPa Calm   7 mph /  11.3 km/h 55 % 0 in /  0.0 mm
19:42 60.3 °F /  15.7 °C 44.4 °F /  6.9 °C 30.1 in /  1019.5 hPa ENE 2 mph /  3.2 km/h 7 mph /  11.3 km/h 56 % 0 in /  0.0 mm
19:52 59.5 °F /  15.3 °C 43.9 °F /  6.6 °C 30.1 in /  1019.5 hPa ENE 1 mph /  1.6 km/h 4 mph /  6.4 km/h 56 % 0 in /  0.0 mm
19:57 59.4 °F /  15.2 °C 43.7 °F /  6.5 °C 30.1 in /  1019.5 hPa ENE 1 mph /  1.6 km/h 4 mph /  6.4 km/h 56 % 0 in /  0.0 mm
20:02 59 °F /  15.0 °C 44.2 °F /  6.8 °C 30.1 in /  1019.5 hPa East 1 mph /  1.6 km/h 4 mph /  6.4 km/h 58 % 0 in /  0.0 mm
20:12 58.3 °F /  14.6 °C 44.1 °F /  6.7 °C 30.1 in /  1019.5 hPa ENE 2 mph /  3.2 km/h 3 mph /  4.8 km/h 59 % 0 in /  0.0 mm
20:17 58.1 °F /  14.5 °C 43.3 °F /  6.3 °C 30.1 in /  1019.5 hPa ENE 1 mph /  1.6 km/h 2 mph /  3.2 km/h 58 % 0 in /  0.0 mm
20:22 57.7 °F /  14.3 °C 43.5 °F /  6.4 °C 30.1 in /  1019.5 hPa NE 2 mph /  3.2 km/h 2 mph /  3.2 km/h 59 % 0 in /  0.0 mm
20:32 57.6 °F /  14.2 °C 43 °F /  6.1 °C 30.1 in /  1019.5 hPa NE 2 mph /  3.2 km/h 2 mph /  3.2 km/h 58 % 0 in /  0.0 mm
20:37 57.6 °F /  14.2 °C 43 °F /  6.1 °C 30.1 in /  1019.5 hPa NE 1 mph /  1.6 km/h 2 mph /  3.2 km/h 58 % 0 in /  0.0 mm
20:42 57.4 °F /  14.1 °C 42.8 °F /  6.0 °C 30.1 in /  1019.5 hPa NE 2 mph /  3.2 km/h 2 mph /  3.2 km/h 58 % 0 in /  0.0 mm
20:47 56.5 °F /  13.6 °C 43.2 °F /  6.2 °C 30.1 in /  1019.5 hPa NNE 3 mph /  4.8 km/h 3 mph /  4.8 km/h 61 % 0 in /  0.0 mm
20:52 56.1 °F /  13.4 °C 42.8 °F /  6.0 °C 30.1 in /  1019.9 hPa NNE 1 mph /  1.6 km/h 2 mph /  3.2 km/h 61 % 0 in /  0.0 mm
20:57 56.1 °F /  13.4 °C 42.8 °F /  6.0 °C 30.1 in /  1019.9 hPa Calm   3 mph /  4.8 km/h 61 % 0 in /  0.0 mm
21:02 55.6 °F /  13.1 °C 43.2 °F /  6.2 °C 30.1 in /  1019.9 hPa Calm   3 mph /  4.8 km/h 63 % 0 in /  0.0 mm
21:12 54.9 °F /  12.7 °C 43 °F /  6.1 °C 30.1 in /  1019.9 hPa Calm   3 mph /  4.8 km/h 64 % 0 in /  0.0 mm
21:17 54.3 °F /  12.4 °C 42.8 °F /  6.0 °C 30.1 in /  1019.9 hPa Calm   1 mph /  1.6 km/h 65 % 0 in /  0.0 mm
21:22 54.3 °F /  12.4 °C 42.8 °F /  6.0 °C 30.1 in /  1020.2 hPa Calm     65 % 0 in /  0.0 mm
21:32 53.8 °F /  12.1 °C 42.6 °F /  5.9 °C 30.1 in /  1020.2 hPa Calm     66 % 0 in /  0.0 mm
21:37 53.1 °F /  11.7 °C 42.8 °F /  6.0 °C 30.1 in /  1020.2 hPa NW 1 mph /  1.6 km/h 1 mph /  1.6 km/h 68 % 0 in /  0.0 mm
21:42 52.3 °F /  11.3 °C 42.8 °F /  6.0 °C 30.1 in /  1020.5 hPa Calm   1 mph /  1.6 km/h 70 % 0 in /  0.0 mm
21:47 52.3 °F /  11.3 °C 42.8 °F /  6.0 °C 30.1 in /  1020.5 hPa Calm   2 mph /  3.2 km/h 70 % 0 in /  0.0 mm
21:52 52 °F /  11.1 °C 42.8 °F /  6.0 °C 30.1 in /  1020.5 hPa Calm   2 mph /  3.2 km/h 71 % 0 in /  0.0 mm
21:57 52 °F /  11.1 °C 42.8 °F /  6.0 °C 30.1 in /  1020.5 hPa Calm     71 % 0 in /  0.0 mm
22:02 51.8 °F /  11.0 °C 42.6 °F /  5.9 °C 30.1 in /  1020.5 hPa Calm     71 % 0 in /  0.0 mm
22:12 52.5 °F /  11.4 °C 42.6 °F /  5.9 °C 30.1 in /  1020.5 hPa Calm     69 % 0 in /  0.0 mm
22:17 52.9 °F /  11.6 °C 42.6 °F /  5.9 °C 30.1 in /  1020.5 hPa Calm     68 % 0 in /  0.0 mm
22:22 52.5 °F /  11.4 °C 42.3 °F /  5.7 °C 30.1 in /  1020.5 hPa Calm     68 % 0 in /  0.0 mm
22:32 52 °F /  11.1 °C 42.4 °F /  5.8 °C 30.1 in /  1020.5 hPa Calm     70 % 0 in /  0.0 mm
22:37 51.6 °F /  10.9 °C 42.4 °F /  5.8 °C 30.1 in /  1020.5 hPa NW 1 mph /  1.6 km/h   71 % 0 in /  0.0 mm
22:42 50.9 °F /  10.5 °C 42.3 °F /  5.7 °C 30.1 in /  1020.5 hPa WNW 2 mph /  3.2 km/h 2 mph /  3.2 km/h 72 % 0 in /  0.0 mm
22:52 51.1 °F /  10.6 °C 42.4 °F /  5.8 °C 30.1 in /  1020.5 hPa WNW 1 mph /  1.6 km/h 2 mph /  3.2 km/h 72 % 0 in /  0.0 mm
22:57 50.9 °F /  10.5 °C 42.6 °F /  5.9 °C 30.1 in /  1020.5 hPa NNW 1 mph /  1.6 km/h 2 mph /  3.2 km/h 73 % 0 in /  0.0 mm
23:02 50.5 °F /  10.3 °C 42.6 °F /  5.9 °C 30.1 in /  1020.2 hPa North 1 mph /  1.6 km/h 2 mph /  3.2 km/h 74 % 0 in /  0.0 mm
23:12 50.7 °F /  10.4 °C 42.8 °F /  6.0 °C 30.1 in /  1020.5 hPa NNW 1 mph /  1.6 km/h 2 mph /  3.2 km/h 74 % 0 in /  0.0 mm
23:22 50.7 °F /  10.4 °C 42.8 °F /  6.0 °C 30.1 in /  1020.5 hPa NNE 1 mph /  1.6 km/h 2 mph /  3.2 km/h 74 % 0 in /  0.0 mm
23:27 50.5 °F /  10.3 °C 42.6 °F /  5.9 °C 30.1 in /  1020.5 hPa NNE 3 mph /  4.8 km/h 3 mph /  4.8 km/h 74 % 0 in /  0.0 mm
23:32 50.9 °F /  10.5 °C 42.6 °F /  5.9 °C 30.1 in /  1020.5 hPa North 3 mph /  4.8 km/h 3 mph /  4.8 km/h 73 % 0 in /  0.0 mm
23:37 51.4 °F /  10.8 °C 42.8 °F /  6.0 °C 30.1 in /  1020.5 hPa NNE 4 mph /  6.4 km/h 7 mph /  11.3 km/h 72 % 0 in /  0.0 mm
23:42 52 °F /  11.1 °C 42.8 °F /  6.0 °C 30.1 in /  1020.5 hPa NE 2 mph /  3.2 km/h 7 mph /  11.3 km/h 71 % 0 in /  0.0 mm
23:47 52.2 °F /  11.2 °C 42.6 °F /  5.9 °C 30.1 in /  1020.5 hPa East 1 mph /  1.6 km/h 7 mph /  11.3 km/h 70 % 0 in /  0.0 mm
23:52 51.8 °F /  11.0 °C 42.6 °F /  5.9 °C 30.1 in /  1020.5 hPa ENE 2 mph /  3.2 km/h 7 mph /  11.3 km/h 71 % 0 in /  0.0 mm
23:57 51.4 °F /  10.8 °C 42.8 °F /  6.0 °C 30.2 in /  1020.9 hPa Calm   4 mph /  6.4 km/h 72 % 0 in /  0.0 mm
Meteo18
Compliments of Weather Underground - 4 mb

Script developed by  Jim McMurry - jmcmurry@mwt.net Adapted for the template by  Wim van der Kuil - Leuven-Template.eu

You find our weather info also at:

European Weather Network

Weather Underground

Equipment we use:

Weather-station
Davis Vue

Weather-program
Meteohub

Weather-server
Raspberry PI 2 B+

Provider
1 and 1

Davis Vue

Meteohub

Raspberry PI 2 B+

1 and 1